Time;durP1;ratioP1;P1;durP2;ratioP2;P2;SDS_P1;SDS_P2;PMS_P1;PMS_P2;Temp;Humidity;BMP_temperature;BMP_pressure;BME280_temperature;BME280_humidity;BME280_pressure;Samples;Min_cycle;Max_cycle;Signal;HPM_P1;HPM_P2
2023/03/25 00:02:21;;;;;;;0.50;0.50;;;16.20;54.60;;;;;;5012939;28;20057;-79
2023/03/25 00:04:53;;;;;;;1.23;0.60;;;16.20;54.70;;;;;;4994250;28;20026;-78
2023/03/25 00:07:20;;;;;;;0.55;0.55;;;16.20;54.70;;;;;;4994507;28;20019;-78
2023/03/25 00:09:47;;;;;;;0.90;0.60;;;16.20;54.50;;;;;;5008159;28;20109;-78
2023/03/25 00:12:14;;;;;;;0.70;0.40;;;16.20;54.50;;;;;;4996109;28;20018;-78
2023/03/25 00:14:41;;;;;;;0.63;0.50;;;16.20;54.50;;;;;;4996033;28;20105;-79
2023/03/25 00:17:09;;;;;;;1.02;0.77;;;16.20;54.50;;;;;;4996047;28;20026;-79
2023/03/25 00:19:35;;;;;;;0.70;0.47;;;16.20;54.60;;;;;;5013652;28;20026;-79
2023/03/25 00:22:01;;;;;;;0.88;0.50;;;16.10;54.70;;;;;;5013465;28;20024;-78
2023/03/25 00:24:27;;;;;;;0.50;0.50;;;16.10;54.70;;;;;;5013248;28;20033;-79
2023/03/25 00:26:53;;;;;;;1.13;0.50;;;16.10;54.80;;;;;;5013380;28;20502;-79
2023/03/25 00:29:19;;;;;;;0.65;0.50;;;16.10;54.90;;;;;;4995935;28;20022;-78
2023/03/25 00:31:45;;;;;;;0.65;0.55;;;16.10;54.90;;;;;;5013480;28;20029;-79
2023/03/25 00:34:13;;;;;;;2.15;0.60;;;16.00;54.70;;;;;;5012992;28;20387;-79
2023/03/25 00:36:40;;;;;;;0.80;0.70;;;16.00;55.00;;;;;;5013424;28;20033;-79
2023/03/25 00:39:07;;;;;;;1.27;0.47;;;16.00;54.90;;;;;;5013286;28;20488;-78
2023/03/25 00:41:35;;;;;;;1.75;0.63;;;15.90;54.80;;;;;;5013363;28;20061;-79
2023/03/25 00:44:02;;;;;;;0.80;0.60;;;15.90;54.90;;;;;;5013284;28;20383;-78
2023/03/25 00:46:30;;;;;;;1.02;0.80;;;15.90;54.90;;;;;;4995813;28;20481;-78
2023/03/25 00:48:57;;;;;;;1.90;0.82;;;15.90;54.90;;;;;;4993691;28;20043;-78
2023/03/25 00:51:24;;;;;;;1.17;0.60;;;15.90;54.90;;;;;;4993775;28;20023;-79
2023/03/25 00:53:55;;;;;;;0.75;0.50;;;15.80;54.90;;;;;;5004073;28;20034;-78
2023/03/25 00:56:21;;;;;;;1.92;0.57;;;15.80;54.80;;;;;;5013400;28;20446;-79
2023/03/25 00:58:47;;;;;;;2.22;0.70;;;15.80;55.00;;;;;;4994192;28;20391;-78
2023/03/25 01:01:15;;;;;;;0.95;0.45;;;15.80;55.00;;;;;;4992608;28;20026;-78
2023/03/25 01:03:42;;;;;;;1.23;0.60;;;15.80;55.00;;;;;;5014819;28;20061;-79
2023/03/25 01:06:16;;;;;;;0.95;0.70;;;15.80;55.20;;;;;;4997455;28;20033;-79
2023/03/25 01:08:43;;;;;;;1.10;0.53;;;15.70;55.40;;;;;;4997371;28;20026;-79
2023/03/25 01:11:25;;;;;;;1.75;1.50;;;15.70;55.30;;;;;;4997438;28;20030;-78
2023/03/25 01:13:51;;;;;;;3.33;0.70;;;15.70;55.30;;;;;;4997276;28;20476;-78
2023/03/25 01:16:17;;;;;;;1.38;0.68;;;15.70;55.50;;;;;;4997055;28;20026;-79
2023/03/25 01:18:43;;;;;;;1.17;0.70;;;15.70;55.40;;;;;;5010099;28;20029;-78
2023/03/25 01:21:09;;;;;;;1.90;0.70;;;15.70;55.50;;;;;;5016817;28;20048;-79
2023/03/25 01:23:35;;;;;;;1.30;0.70;;;15.70;55.50;;;;;;5016203;28;20479;-78
2023/03/25 01:26:01;;;;;;;1.00;0.82;;;15.60;55.60;;;;;;5016686;28;20498;-78
2023/03/25 01:28:27;;;;;;;0.90;0.80;;;15.60;55.40;;;;;;5016552;28;20022;-78
2023/03/25 01:31:03;;;;;;;1.80;0.77;;;15.60;55.40;;;;;;5016494;28;20360;-78
2023/03/25 01:33:31;;;;;;;2.97;1.00;;;15.60;55.40;;;;;;5016574;28;20021;-79
2023/03/25 01:36:01;;;;;;;0.98;0.60;;;15.60;55.30;;;;;;5016400;28;20057;-77
2023/03/25 01:38:29;;;;;;;1.58;0.80;;;15.60;55.50;;;;;;5016251;28;20045;-78
2023/03/25 01:40:56;;;;;;;1.95;0.90;;;15.50;55.30;;;;;;5016438;28;20053;-77
2023/03/25 01:43:22;;;;;;;0.80;0.75;;;15.50;55.30;;;;;;4998627;28;20054;-78
2023/03/25 01:45:49;;;;;;;1.30;1.10;;;15.40;55.40;;;;;;5016161;28;20492;-79
2023/03/25 01:48:21;;;;;;;1.23;0.60;;;15.40;55.50;;;;;;5016507;28;20093;-79
2023/03/25 01:51:21;;;;;;;1.00;0.70;;;15.40;55.60;;;;;;5016214;28;20017;-78
2023/03/25 01:53:48;;;;;;;1.60;0.98;;;15.40;55.80;;;;;;5002186;28;20092;-79
2023/03/25 01:56:19;;;;;;;1.45;0.60;;;15.30;55.90;;;;;;5015856;28;20034;-78
2023/03/25 01:58:45;;;;;;;1.45;0.90;;;15.30;55.80;;;;;;5016045;28;20022;-79
2023/03/25 02:01:14;;;;;;;1.15;0.75;;;15.30;55.90;;;;;;4998400;28;20486;-78
2023/03/25 02:03:44;;;;;;;2.03;0.90;;;15.40;55.90;;;;;;5015674;28;20030;-78
2023/03/25 02:06:25;;;;;;;1.42;0.85;;;15.40;55.90;;;;;;5015948;28;20384;-79
2023/03/25 02:08:53;;;;;;;1.38;0.80;;;15.40;55.90;;;;;;5015548;28;20029;-79
2023/03/25 02:11:19;;;;;;;1.15;0.80;;;15.40;55.70;;;;;;5014327;28;20080;-78
2023/03/25 02:13:45;;;;;;;0.95;0.50;;;15.40;55.70;;;;;;4998001;28;20450;-78
2023/03/25 02:16:21;;;;;;;0.70;0.68;;;15.40;55.60;;;;;;5015749;28;20026;-79
2023/03/25 02:19:08;;;;;;;3.13;0.80;;;15.40;55.50;;;;;;5015454;28;20476;-79
2023/03/25 02:21:54;;;;;;;1.00;0.80;;;15.30;55.50;;;;;;5015411;28;20395;-79
2023/03/25 02:24:52;;;;;;;2.10;0.70;;;15.30;55.40;;;;;;4987182;28;20049;-80
2023/03/25 02:27:52;;;;;;;1.23;0.90;;;15.30;55.60;;;;;;5015383;28;20076;-80
2023/03/25 02:30:53;;;;;;;1.95;1.00;;;15.20;55.70;;;;;;4997937;28;20030;-80
2023/03/25 02:33:50;;;;;;;1.33;0.80;;;15.20;55.60;;;;;;4936738;29;20536;-80
2023/03/25 02:36:40;;;;;;;1.50;0.80;;;15.20;55.60;;;;;;4936691;29;20027;-79
2023/03/25 02:39:25;;;;;;;4.80;1.23;;;15.20;55.70;;;;;;4919178;29;20438;-79
2023/03/25 02:41:58;;;;;;;2.28;1.30;;;15.20;55.80;;;;;;4949956;29;20032;-78
2023/03/25 02:44:53;;;;;;;1.83;0.82;;;15.20;55.80;;;;;;4940717;29;20035;-78
2023/03/25 02:47:23;;;;;;;1.02;0.80;;;15.20;55.80;;;;;;4949712;29;20043;-79
2023/03/25 02:49:59;;;;;;;1.80;0.90;;;15.30;55.80;;;;;;4954484;29;20027;-79
2023/03/25 02:52:33;;;;;;;1.05;0.88;;;15.20;55.90;;;;;;4934073;29;20473;-79
2023/03/25 02:55:03;;;;;;;1.48;1.05;;;15.30;56.00;;;;;;4934269;29;20047;-78
2023/03/25 02:57:33;;;;;;;2.28;0.85;;;15.20;56.20;;;;;;4935489;29;20043;-78
2023/03/25 03:00:00;;;;;;;1.40;1.00;;;15.20;56.20;;;;;;4935127;29;20031;-78
2023/03/25 03:02:31;;;;;;;1.25;0.82;;;15.20;56.30;;;;;;4935284;29;20038;-79
2023/03/25 03:04:56;;;;;;;1.25;1.15;;;15.10;56.40;;;;;;4918992;29;20059;-79
2023/03/25 03:07:27;;;;;;;1.33;0.95;;;15.10;56.60;;;;;;4935072;29;20489;-78
2023/03/25 03:09:58;;;;;;;1.30;1.00;;;15.10;56.60;;;;;;4958948;28;20030;-79
2023/03/25 03:12:53;;;;;;;1.88;1.42;;;15.00;56.70;;;;;;4995196;28;20052;-79
2023/03/25 03:15:36;;;;;;;1.45;1.00;;;15.00;56.70;;;;;;5000965;28;20505;-78
2023/03/25 03:18:09;;;;;;;2.70;1.00;;;15.00;56.80;;;;;;5014649;28;20029;-79
2023/03/25 03:20:56;;;;;;;3.10;1.27;;;14.90;56.80;;;;;;5014563;28;20497;-78
2023/03/25 03:23:48;;;;;;;1.98;1.00;;;14.80;56.70;;;;;;5013803;28;20026;-78
2023/03/25 03:26:31;;;;;;;4.55;1.23;;;14.80;56.60;;;;;;5014300;28;20029;-78
2023/03/25 03:29:24;;;;;;;1.67;0.80;;;14.80;56.70;;;;;;5014299;28;20025;-78
2023/03/25 03:32:07;;;;;;;1.77;1.00;;;14.80;56.90;;;;;;5014173;28;20026;-78
2023/03/25 03:34:45;;;;;;;1.30;1.00;;;14.70;56.80;;;;;;5014171;28;20031;-78
2023/03/25 03:37:35;;;;;;;1.30;0.90;;;14.70;56.90;;;;;;5014184;28;20029;-79
2023/03/25 03:40:07;;;;;;;3.03;1.20;;;14.60;56.90;;;;;;5013988;28;20046;-79
2023/03/25 03:42:51;;;;;;;2.25;1.17;;;14.60;57.20;;;;;;5014137;28;20107;-78
2023/03/25 03:45:26;;;;;;;2.10;1.02;;;14.50;57.20;;;;;;5011249;28;20423;-78
2023/03/25 03:47:54;;;;;;;2.40;1.17;;;14.50;57.20;;;;;;4994942;28;20102;-79
2023/03/25 03:50:26;;;;;;;0.85;0.75;;;14.40;57.30;;;;;;5013863;28;20022;-79
2023/03/25 03:53:04;;;;;;;1.25;1.08;;;14.30;57.30;;;;;;5014055;28;20025;-78
2023/03/25 03:55:48;;;;;;;0.80;0.80;;;14.30;57.60;;;;;;5013889;28;20044;-79
2023/03/25 03:58:22;;;;;;;1.85;1.10;;;14.20;57.60;;;;;;5013966;28;20388;-78
2023/03/25 04:00:56;;;;;;;2.00;0.75;;;14.20;57.90;;;;;;5013972;28;20379;-78
2023/03/25 04:03:29;;;;;;;5.15;1.10;;;14.20;57.80;;;;;;5013560;28;20032;-78
2023/03/25 04:06:07;;;;;;;1.75;1.20;;;14.10;57.90;;;;;;5013857;28;20105;-78
2023/03/25 04:09:04;;;;;;;1.88;1.30;;;14.10;58.50;;;;;;5014025;28;20093;-80
2023/03/25 04:11:39;;;;;;;5.05;1.20;;;14.10;58.40;;;;;;5004282;28;20125;-79
2023/03/25 04:14:06;;;;;;;2.30;1.15;;;14.00;58.60;;;;;;4997051;28;20026;-77
2023/03/25 04:16:32;;;;;;;2.90;1.10;;;14.00;59.00;;;;;;5007295;28;20030;-77
2023/03/25 04:18:58;;;;;;;1.50;0.80;;;14.00;59.00;;;;;;5016682;28;20059;-79
2023/03/25 04:21:28;;;;;;;2.45;1.38;;;13.90;58.90;;;;;;5025711;28;20077;-77
2023/03/25 04:23:54;;;;;;;3.78;0.90;;;13.90;59.20;;;;;;5026024;28;20109;-77
2023/03/25 04:26:20;;;;;;;2.33;0.85;;;13.90;59.20;;;;;;5017874;28;20057;-78
2023/03/25 04:28:46;;;;;;;1.50;0.90;;;13.90;59.20;;;;;;5013480;28;20018;-78
2023/03/25 04:31:17;;;;;;;1.63;0.90;;;13.90;59.10;;;;;;5013447;28;20072;-78
2023/03/25 04:33:47;;;;;;;1.35;1.08;;;13.90;59.00;;;;;;4995895;28;20026;-78
2023/03/25 04:36:13;;;;;;;2.35;0.80;;;13.90;58.90;;;;;;5011567;28;20022;-78
2023/03/25 04:38:40;;;;;;;0.85;0.80;;;13.90;58.90;;;;;;5017284;28;20046;-79
2023/03/25 04:41:09;;;;;;;4.05;1.10;;;13.80;59.00;;;;;;4999585;28;20602;-79
2023/03/25 04:43:38;;;;;;;2.05;0.90;;;13.80;59.20;;;;;;4999715;28;20033;-79
2023/03/25 04:46:04;;;;;;;3.30;1.08;;;13.80;59.10;;;;;;5017350;28;20033;-78
2023/03/25 04:48:32;;;;;;;1.77;1.00;;;13.80;59.30;;;;;;4999361;28;20109;-78
2023/03/25 04:51:00;;;;;;;3.65;1.58;;;13.80;59.30;;;;;;5015118;28;20432;-78
2023/03/25 04:53:26;;;;;;;1.30;0.85;;;13.80;59.10;;;;;;4999956;28;20027;-79
2023/03/25 04:55:54;;;;;;;2.03;0.80;;;13.80;59.10;;;;;;4997550;28;20034;-79
2023/03/25 04:58:21;;;;;;;2.33;1.08;;;13.80;59.00;;;;;;4997386;28;20029;-79
2023/03/25 05:00:50;;;;;;;9.10;1.23;;;13.70;58.90;;;;;;4997503;28;20034;-78
2023/03/25 05:03:22;;;;;;;3.45;1.30;;;13.80;58.90;;;;;;4996108;28;20479;-80
2023/03/25 05:05:52;;;;;;;2.38;0.77;;;13.80;58.90;;;;;;4979822;28;20023;-79
2023/03/25 05:08:20;;;;;;;2.58;0.85;;;13.80;58.50;;;;;;4997419;28;20101;-79
2023/03/25 05:10:46;;;;;;;1.83;1.10;;;13.80;58.20;;;;;;5000525;28;20022;-79
2023/03/25 05:13:12;;;;;;;4.80;0.90;;;13.80;57.30;;;;;;4997310;28;20026;-79
2023/03/25 05:15:38;;;;;;;4.68;0.77;;;13.80;57.30;;;;;;4997195;28;20026;-79
2023/03/25 05:18:14;;;;;;;3.47;1.13;;;13.90;57.00;;;;;;4998666;28;20494;-79
2023/03/25 05:20:43;;;;;;;4.93;1.23;;;13.90;56.90;;;;;;4999199;28;20045;-78
2023/03/25 05:23:16;;;;;;;1.98;1.00;;;13.90;56.50;;;;;;5016848;28;20029;-78
2023/03/25 05:25:49;;;;;;;5.38;2.10;;;14.00;56.40;;;;;;5014641;28;20025;-79
2023/03/25 05:28:16;;;;;;;10.55;3.20;;;14.00;56.00;;;;;;4999057;28;20057;-78
2023/03/25 05:30:44;;;;;;;4.35;1.60;;;14.10;56.00;;;;;;4999008;28;20022;-79
2023/03/25 05:33:14;;;;;;;4.43;2.40;;;14.10;55.80;;;;;;4999056;28;20112;-78
2023/03/25 05:35:41;;;;;;;8.25;2.58;;;14.10;55.70;;;;;;5016598;28;20039;-79
2023/03/25 05:38:11;;;;;;;5.38;1.70;;;14.20;55.60;;;;;;5016306;28;20497;-77
2023/03/25 05:40:37;;;;;;;3.40;1.70;;;14.20;55.20;;;;;;5016527;28;20030;-78
2023/03/25 05:43:05;;;;;;;8.50;3.85;;;14.20;55.40;;;;;;4998743;28;20502;-77
2023/03/25 05:45:31;;;;;;;4.95;1.20;;;14.30;55.00;;;;;;5016129;28;20025;-78
2023/03/25 05:47:59;;;;;;;6.32;2.35;;;14.30;54.90;;;;;;5015918;28;20022;-78
2023/03/25 05:50:27;;;;;;;5.10;1.63;;;14.30;54.60;;;;;;5016520;28;20026;-79
2023/03/25 05:52:54;;;;;;;2.60;0.82;;;14.40;54.40;;;;;;5016231;28;20033;-79
2023/03/25 05:55:22;;;;;;;2.65;0.90;;;14.40;54.50;;;;;;4998608;28;20061;-78
2023/03/25 05:57:49;;;;;;;3.63;1.38;;;14.40;53.90;;;;;;5016076;28;20021;-78
2023/03/25 06:00:20;;;;;;;1.70;0.80;;;14.40;54.00;;;;;;5016047;28;20502;-77
2023/03/25 06:02:47;;;;;;;5.97;1.00;;;14.50;54.20;;;;;;5015962;28;20034;-79
2023/03/25 06:05:14;;;;;;;4.15;1.25;;;14.50;54.20;;;;;;5015896;28;20033;-78
2023/03/25 06:07:46;;;;;;;7.38;1.35;;;14.50;54.10;;;;;;4998324;28;20069;-78
2023/03/25 06:10:16;;;;;;;5.85;0.77;;;14.40;54.20;;;;;;4998211;28;20586;-79
2023/03/25 06:12:44;;;;;;;3.90;0.95;;;14.40;54.10;;;;;;5016032;28;20107;-79
2023/03/25 06:15:13;;;;;;;2.38;0.68;;;14.50;53.90;;;;;;5015916;28;20026;-78
2023/03/25 06:17:39;;;;;;;5.05;1.40;;;14.50;53.90;;;;;;4998025;28;20092;-79
2023/03/25 06:20:11;;;;;;;2.50;0.98;;;14.50;53.90;;;;;;5015262;28;20026;-80
2023/03/25 06:22:42;;;;;;;3.70;1.05;;;14.50;54.00;;;;;;5016026;28;20080;-80
2023/03/25 06:25:10;;;;;;;4.22;1.10;;;14.50;53.70;;;;;;5015621;28;20114;-80
2023/03/25 06:27:39;;;;;;;2.80;0.73;;;14.50;53.50;;;;;;5015500;28;20483;-79
2023/03/25 06:30:10;;;;;;;1.63;0.80;;;14.60;53.60;;;;;;4997698;28;20030;-80
2023/03/25 06:32:37;;;;;;;4.40;0.80;;;14.60;53.50;;;;;;5013977;28;20036;-80
2023/03/25 06:35:04;;;;;;;2.70;0.70;;;14.70;53.30;;;;;;4997966;28;20383;-80
2023/03/25 06:37:30;;;;;;;4.65;1.13;;;14.70;53.20;;;;;;4997156;28;20028;-79
2023/03/25 06:39:58;;;;;;;2.72;1.23;;;14.70;53.60;;;;;;5015098;28;20069;-81
2023/03/25 06:42:25;;;;;;;6.13;0.98;;;14.70;53.20;;;;;;5014928;28;20447;-79
2023/03/25 06:44:51;;;;;;;4.53;0.90;;;14.80;53.10;;;;;;4997639;28;20109;-79
2023/03/25 06:47:18;;;;;;;3.70;1.27;;;14.80;52.80;;;;;;5015094;28;20022;-80
2023/03/25 06:49:44;;;;;;;4.35;1.17;;;14.80;52.70;;;;;;5014594;28;20105;-80
2023/03/25 06:52:11;;;;;;;3.92;1.17;;;14.90;52.50;;;;;;5015255;28;20467;-80
2023/03/25 06:54:37;;;;;;;3.92;1.52;;;14.90;52.20;;;;;;5012882;28;20136;-79
2023/03/25 06:57:03;;;;;;;3.13;1.40;;;15.00;52.20;;;;;;4996578;28;20026;-79
2023/03/25 06:59:29;;;;;;;10.85;1.25;;;15.00;52.00;;;;;;5014969;28;20033;-80
2023/03/25 07:01:55;;;;;;;6.25;1.33;;;15.10;51.90;;;;;;5014990;28;20030;-78
2023/03/25 07:04:21;;;;;;;1.48;1.00;;;15.10;52.00;;;;;;4997124;28;20030;-80
2023/03/25 07:06:50;;;;;;;3.78;1.02;;;15.20;52.10;;;;;;5014502;28;20379;-79
2023/03/25 07:09:16;;;;;;;4.00;0.95;;;15.30;51.90;;;;;;5014721;28;20022;-80
2023/03/25 07:11:42;;;;;;;5.22;1.40;;;15.40;51.50;;;;;;5014662;28;20364;-80
2023/03/25 07:14:08;;;;;;;5.55;1.13;;;15.50;51.60;;;;;;5014742;28;20022;-80
2023/03/25 07:16:34;;;;;;;3.63;1.05;;;15.60;51.30;;;;;;4996697;28;20022;-80
2023/03/25 07:19:00;;;;;;;3.67;0.77;;;15.60;50.90;;;;;;5013566;28;20034;-80
2023/03/25 07:21:26;;;;;;;3.70;0.70;;;15.70;50.90;;;;;;5013800;28;20080;-80
2023/03/25 07:23:52;;;;;;;5.20;1.17;;;15.80;50.40;;;;;;4996660;28;20041;-79
2023/03/25 07:26:18;;;;;;;4.53;0.95;;;15.80;50.20;;;;;;5014399;28;20020;-79
2023/03/25 07:28:46;;;;;;;1.90;0.90;;;15.80;49.60;;;;;;5014449;28;20022;-79
2023/03/25 07:31:14;;;;;;;4.03;1.25;;;15.90;49.40;;;;;;5014331;28;20022;-79
2023/03/25 07:33:40;;;;;;;3.53;1.50;;;15.90;49.40;;;;;;5013858;28;20061;-80
2023/03/25 07:36:10;;;;;;;3.10;1.25;;;16.00;49.40;;;;;;5014167;28;20033;-80
2023/03/25 07:38:36;;;;;;;6.18;2.35;;;15.90;48.70;;;;;;4996169;28;20111;-80
2023/03/25 07:41:20;;;;;;;4.28;1.88;;;16.00;48.80;;;;;;5013855;28;20030;-79
2023/03/25 07:43:45;;;;;;;3.72;1.30;;;16.10;48.40;;;;;;4996259;28;20391;-80
2023/03/25 07:46:11;;;;;;;6.57;0.90;;;16.10;48.60;;;;;;5013778;28;20030;-79
2023/03/25 07:48:37;;;;;;;1.77;1.02;;;16.20;48.70;;;;;;4996119;28;20029;-80
2023/03/25 07:51:03;;;;;;;5.28;1.80;;;16.40;48.20;;;;;;5014113;28;20034;-80
2023/03/25 07:53:30;;;;;;;4.32;1.75;;;16.40;47.40;;;;;;5013574;28;20030;-79
2023/03/25 07:55:55;;;;;;;3.20;1.20;;;16.50;47.00;;;;;;5014046;28;20030;-79
2023/03/25 07:58:21;;;;;;;2.83;1.27;;;16.60;46.90;;;;;;5013962;28;20506;-80
2023/03/25 08:00:47;;;;;;;4.45;1.20;;;16.70;47.10;;;;;;5013925;28;20105;-80
2023/03/25 08:03:14;;;;;;;6.03;1.17;;;16.70;46.40;;;;;;4996460;28;20022;-80
2023/03/25 08:05:46;;;;;;;1.95;0.55;;;16.70;44.60;;;;;;5013931;28;20475;-80
2023/03/25 08:08:13;;;;;;;3.53;0.90;;;16.70;45.40;;;;;;5013818;28;20030;-80
2023/03/25 08:10:42;;;;;;;20.70;4.35;;;16.70;45.70;;;;;;4995262;28;20026;-80
2023/03/25 08:13:08;;;;;;;4.35;1.40;;;16.70;45.50;;;;;;5013710;28;20024;-80
2023/03/25 08:15:34;;;;;;;5.85;2.75;;;16.70;45.30;;;;;;4995958;28;20113;-80
2023/03/25 08:18:01;;;;;;;5.45;1.27;;;16.80;45.40;;;;;;5013132;28;20357;-79
2023/03/25 08:20:27;;;;;;;6.38;1.20;;;16.80;44.80;;;;;;5010364;28;20025;-79
2023/03/25 08:22:53;;;;;;;4.32;1.40;;;16.70;45.20;;;;;;5013497;28;20025;-80
2023/03/25 08:25:19;;;;;;;2.33;1.10;;;16.60;45.10;;;;;;4995973;28;20026;-80
2023/03/25 08:27:45;;;;;;;4.38;0.70;;;16.60;45.40;;;;;;4995936;28;20108;-80
2023/03/25 08:30:12;;;;;;;2.72;1.00;;;16.50;45.40;;;;;;5013623;28;20102;-79
2023/03/25 08:32:39;;;;;;;3.15;0.80;;;16.50;45.20;;;;;;5013511;28;20029;-80
2023/03/25 08:35:06;;;;;;;3.42;0.77;;;16.40;45.70;;;;;;5013530;28;20093;-78
2023/03/25 08:37:34;;;;;;;2.63;0.85;;;16.20;45.80;;;;;;5006139;28;20030;-79
2023/03/25 08:40:08;;;;;;;3.95;1.00;;;16.20;46.30;;;;;;4993681;28;20038;-79
2023/03/25 08:42:35;;;;;;;5.53;1.20;;;16.20;46.50;;;;;;4995559;28;20061;-79
2023/03/25 08:45:02;;;;;;;3.35;1.17;;;16.20;46.50;;;;;;4995491;28;20048;-79
2023/03/25 08:47:28;;;;;;;4.35;0.88;;;16.20;46.70;;;;;;5011339;28;20472;-79
2023/03/25 08:49:54;;;;;;;3.97;0.90;;;16.20;46.30;;;;;;4994550;28;20041;-79
2023/03/25 08:52:20;;;;;;;3.83;1.05;;;16.10;46.40;;;;;;5012563;28;20419;-80
2023/03/25 08:54:45;;;;;;;3.30;0.80;;;16.10;46.70;;;;;;4987092;28;20041;-80
2023/03/25 08:57:11;;;;;;;3.83;0.85;;;16.20;47.00;;;;;;4992454;28;20067;-80
2023/03/25 08:59:37;;;;;;;4.57;1.15;;;16.20;46.90;;;;;;5013218;28;20022;-79
2023/03/25 09:02:03;;;;;;;5.75;0.90;;;16.20;46.70;;;;;;4995761;28;20489;-79
2023/03/25 09:04:29;;;;;;;4.22;1.17;;;16.30;46.80;;;;;;5013181;28;20036;-80
2023/03/25 09:06:55;;;;;;;1.92;1.00;;;16.30;46.70;;;;;;5013350;28;20109;-79
2023/03/25 09:09:22;;;;;;;4.97;1.33;;;16.40;46.40;;;;;;5013204;28;20076;-79
2023/03/25 09:11:48;;;;;;;2.72;0.70;;;16.50;45.60;;;;;;5012875;28;20033;-79
2023/03/25 09:14:14;;;;;;;3.10;1.10;;;16.50;45.40;;;;;;4998022;28;20026;-79
2023/03/25 09:16:40;;;;;;;3.80;1.27;;;16.60;44.40;;;;;;4975996;28;20034;-78
2023/03/25 09:19:07;;;;;;;1.70;0.88;;;16.50;44.00;;;;;;5003384;28;20111;-79
2023/03/25 09:21:33;;;;;;;6.88;1.40;;;16.60;44.10;;;;;;4997806;28;20388;-80
2023/03/25 09:23:59;;;;;;;6.57;1.75;;;16.60;42.90;;;;;;5016539;28;20101;-80
2023/03/25 09:26:25;;;;;;;5.80;1.58;;;16.70;43.20;;;;;;5016632;28;20033;-80
2023/03/25 09:28:54;;;;;;;4.05;0.88;;;16.70;42.70;;;;;;4999088;28;20029;-80
2023/03/25 09:31:20;;;;;;;3.85;1.05;;;16.80;42.90;;;;;;5005722;28;20014;-80
2023/03/25 09:33:45;;;;;;;0.85;0.47;;;17.00;42.80;;;;;;4997355;28;20037;-80
2023/03/25 09:36:11;;;;;;;3.20;1.13;;;17.10;42.40;;;;;;5014928;28;20026;-81
2023/03/25 09:38:37;;;;;;;3.40;1.13;;;17.20;41.70;;;;;;4995271;28;20050;-79
2023/03/25 09:41:21;;;;;;;2.40;0.82;;;17.20;41.10;;;;;;4996801;28;20033;-80
2023/03/25 09:44:08;;;;;;;4.88;0.98;;;17.20;40.30;;;;;;4999660;28;20141;-78
2023/03/25 09:46:37;;;;;;;4.53;0.82;;;17.20;40.40;;;;;;4998537;28;20033;-78
2023/03/25 09:49:03;;;;;;;1.33;0.80;;;17.20;39.60;;;;;;5015857;28;20101;-79
2023/03/25 09:51:34;;;;;;;2.08;0.73;;;17.10;39.80;;;;;;5016389;28;20029;-79
2023/03/25 09:54:11;;;;;;;2.08;0.77;;;17.00;40.30;;;;;;5016248;28;20022;-79
2023/03/25 09:56:39;;;;;;;10.65;1.02;;;16.90;39.70;;;;;;5015002;28;20538;-79
2023/03/25 09:59:13;;;;;;;4.15;1.70;;;16.80;40.50;;;;;;4999831;28;20082;-79
2023/03/25 10:01:49;;;;;;;16.08;1.38;;;16.80;40.60;;;;;;4995226;28;20038;-79
2023/03/25 10:04:38;;;;;;;1.83;0.70;;;16.80;40.60;;;;;;4978916;28;20041;-79
2023/03/25 10:07:15;;;;;;;3.53;0.90;;;16.70;41.10;;;;;;5002977;28;20022;-78
2023/03/25 10:09:53;;;;;;;9.07;1.30;;;16.70;40.90;;;;;;5015885;28;20022;-79
2023/03/25 10:12:19;;;;;;;2.25;0.70;;;16.60;40.80;;;;;;5015340;28;20033;-79
2023/03/25 10:15:23;;;;;;;2.22;0.75;;;16.60;40.20;;;;;;5015801;28;20022;-79
2023/03/25 10:18:05;;;;;;;5.50;0.60;;;16.50;40.10;;;;;;4975743;28;20510;-79
2023/03/25 10:21:00;;;;;;;2.05;0.60;;;16.50;39.90;;;;;;4983960;28;20626;-78
2023/03/25 10:23:35;;;;;;;3.50;0.98;;;16.50;40.60;;;;;;4995783;28;20026;-79
2023/03/25 10:26:09;;;;;;;3.78;0.85;;;16.50;40.50;;;;;;5007406;28;20068;-79
2023/03/25 10:28:42;;;;;;;3.38;0.90;;;16.60;40.20;;;;;;5015815;28;20410;-79
2023/03/25 10:31:16;;;;;;;8.40;0.90;;;16.60;40.30;;;;;;5015164;28;20018;-79
2023/03/25 10:34:10;;;;;;;3.00;1.10;;;16.60;39.90;;;;;;5014033;28;20036;-80
2023/03/25 10:36:48;;;;;;;2.42;0.88;;;16.70;39.70;;;;;;5015243;28;20038;-80
2023/03/25 10:39:19;;;;;;;4.10;0.77;;;16.70;39.70;;;;;;4997470;28;20054;-79
2023/03/25 10:42:00;;;;;;;3.13;0.88;;;16.80;40.10;;;;;;5015269;28;20033;-79
2023/03/25 10:44:27;;;;;;;1.45;0.70;;;16.80;39.60;;;;;;4997283;28;20037;-78
2023/03/25 10:47:03;;;;;;;2.90;0.93;;;16.80;39.20;;;;;;5008765;28;20018;-79
2023/03/25 10:49:31;;;;;;;4.07;0.70;;;16.90;39.20;;;;;;4996886;28;20030;-79
2023/03/25 10:51:58;;;;;;;4.38;0.70;;;17.00;39.20;;;;;;5003416;28;20023;-79
2023/03/25 10:54:40;;;;;;;1.20;0.50;;;17.00;38.40;;;;;;5000272;28;20424;-79
2023/03/25 10:57:08;;;;;;;6.10;0.70;;;17.10;37.30;;;;;;5007490;28;20534;-80
2023/03/25 11:00:11;;;;;;;21.38;1.13;;;17.20;37.00;;;;;;5014793;28;20387;-79
2023/03/25 11:02:37;;;;;;;7.13;0.90;;;17.30;36.90;;;;;;4996235;28;20029;-78
2023/03/25 11:05:06;;;;;;;2.53;0.75;;;17.40;36.90;;;;;;4997430;28;20430;-79
2023/03/25 11:07:40;;;;;;;5.00;0.60;;;17.50;35.90;;;;;;5014764;28;20016;-79
2023/03/25 11:10:23;;;;;;;1.75;0.93;;;17.60;35.90;;;;;;4989571;28;20053;-78
2023/03/25 11:12:51;;;;;;;1.17;0.68;;;17.70;36.20;;;;;;5007942;28;20037;-79
2023/03/25 11:15:19;;;;;;;2.65;0.70;;;17.90;36.00;;;;;;5013551;28;20026;-79
2023/03/25 11:17:46;;;;;;;5.32;1.00;;;17.90;35.80;;;;;;4998673;28;20041;-79
2023/03/25 11:20:27;;;;;;;3.60;0.70;;;17.90;35.80;;;;;;5029738;28;20100;-79
2023/03/25 11:22:57;;;;;;;3.10;0.80;;;17.80;35.60;;;;;;5018857;28;20075;-79
2023/03/25 11:25:38;;;;;;;2.25;0.50;;;17.80;36.00;;;;;;5031172;28;20025;-79
2023/03/25 11:28:20;;;;;;;2.13;0.55;;;17.80;35.80;;;;;;5001175;28;20427;-80
2023/03/25 11:31:15;;;;;;;2.58;1.25;;;17.90;36.00;;;;;;5003815;28;20025;-80
2023/03/25 11:33:58;;;;;;;2.15;0.90;;;17.90;36.50;;;;;;5026647;28;20109;-78
2023/03/25 11:36:28;;;;;;;1.88;0.55;;;18.00;36.40;;;;;;5010533;28;20033;-77
2023/03/25 11:39:29;;;;;;;3.42;0.73;;;17.90;35.80;;;;;;5008154;28;20052;-79
2023/03/25 11:41:56;;;;;;;3.00;0.95;;;17.90;36.20;;;;;;5024863;28;20091;-79
2023/03/25 11:44:32;;;;;;;1.70;0.70;;;17.90;36.20;;;;;;5039658;28;20032;-79
2023/03/25 11:47:04;;;;;;;1.65;0.77;;;17.90;35.30;;;;;;5046018;28;20024;-79
2023/03/25 11:49:41;;;;;;;4.70;1.02;;;17.80;35.80;;;;;;5043840;28;20026;-77
2023/03/25 11:52:26;;;;;;;2.45;0.98;;;17.80;36.20;;;;;;5042238;28;20029;-78
2023/03/25 11:54:54;;;;;;;1.63;0.70;;;17.80;35.90;;;;;;5041563;28;20032;-79
2023/03/25 11:57:26;;;;;;;3.33;0.80;;;17.80;35.40;;;;;;5000082;28;20026;-80
2023/03/25 12:00:26;;;;;;;1.52;0.50;;;17.80;35.60;;;;;;4992686;28;20030;-79
2023/03/25 12:03:04;;;;;;;1.23;0.40;;;17.80;36.50;;;;;;5009562;28;20171;-79
2023/03/25 12:05:31;;;;;;;2.22;0.52;;;17.90;36.00;;;;;;5011472;28;20099;-79
2023/03/25 12:08:15;;;;;;;2.88;1.20;;;17.90;36.00;;;;;;5012488;28;20018;-79
2023/03/25 12:10:54;;;;;;;3.53;0.82;;;18.00;36.80;;;;;;4991959;28;20542;-80
2023/03/25 12:13:24;;;;;;;1.60;0.88;;;18.00;36.40;;;;;;5012093;28;20058;-79
2023/03/25 12:15:57;;;;;;;1.63;0.52;;;18.20;36.30;;;;;;5007100;28;20018;-79
2023/03/25 12:18:54;;;;;;;6.30;0.88;;;18.20;35.70;;;;;;5009787;28;20056;-80
2023/03/25 12:21:31;;;;;;;1.95;0.80;;;18.20;36.20;;;;;;5012022;28;20021;-79
2023/03/25 12:24:30;;;;;;;1.77;0.60;;;18.20;35.60;;;;;;4994307;28;20029;-79
2023/03/25 12:27:34;;;;;;;1.52;0.40;;;18.20;36.20;;;;;;4994239;28;20105;-79
2023/03/25 12:30:19;;;;;;;2.03;0.40;;;18.20;37.00;;;;;;5009598;28;20022;-79
2023/03/25 12:33:10;;;;;;;0.95;0.40;;;18.20;37.10;;;;;;5009744;28;20514;-81
2023/03/25 12:36:13;;;;;;;1.30;0.63;;;18.20;36.60;;;;;;5008139;28;20049;-79
2023/03/25 12:38:47;;;;;;;1.88;0.50;;;18.20;36.80;;;;;;4913641;29;20087;-80
2023/03/25 12:41:36;;;;;;;1.63;0.55;;;18.30;36.50;;;;;;4912472;29;20059;-82
2023/03/25 12:44:19;;;;;;;1.73;0.57;;;18.20;36.30;;;;;;4913469;29;20119;-80
2023/03/25 12:47:00;;;;;;;3.15;1.15;;;18.30;36.80;;;;;;4925614;29;20034;-81
2023/03/25 12:49:54;;;;;;;2.53;0.60;;;18.40;36.70;;;;;;4933011;29;20035;-80
2023/03/25 12:52:38;;;;;;;;;;;18.50;36.10;;;;;;4932110;29;20035;-81
2023/03/25 12:55:50;;;;;;;1.30;0.43;;;18.80;36.90;;;;;;4932535;29;19934;-80
2023/03/25 12:58:22;;;;;;;2.22;0.40;;;18.90;35.60;;;;;;4918616;29;20113;-83
2023/03/25 13:01:18;;;;;;;1.63;0.63;;;19.00;34.50;;;;;;4930545;29;20035;-79
2023/03/25 13:04:28;;;;;;;0.52;0.50;;;19.00;34.80;;;;;;4942480;29;20528;-86
2023/03/25 13:07:15;;;;;;;1.55;0.40;;;19.10;34.90;;;;;;4920850;29;20024;-84
2023/03/25 13:10:00;;;;;;;1.55;0.32;;;19.20;34.30;;;;;;4937213;29;20036;-83
2023/03/25 13:12:34;;;;;;;1.17;0.40;;;19.20;34.10;;;;;;4935744;29;20119;-81
2023/03/25 13:15:17;;;;;;;1.45;0.68;;;19.30;33.90;;;;;;4955523;28;20183;-82
2023/03/25 13:17:50;;;;;;;1.65;0.57;;;19.30;34.20;;;;;;5008741;28;20049;-81